Time,TemperatureF,DewpointF,PressureIn,WindDirection,WindDirectionDegrees,WindSpeedMPH,WindSpeedGustMPH,Humidity,HourlyPrecipIn,Conditions,Clouds,dailyrainin,SoftwareType,DateUTC
2013-01-27 00:10:00,9.5,3.0,30.34,NW,322,0.0,0.0,74,0.00,,,0.00,weatherlink.com 1.10,2013-01-27 05:10:00,
2013-01-27 00:25:00,8.7,3.0,30.35,NW,322,0.0,0.0,77,0.00,,,0.00,weatherlink.com 1.10,2013-01-27 05:25:00,
2013-01-27 00:41:00,7.8,3.0,30.34,NW,322,0.0,0.0,80,0.00,,,0.00,weatherlink.com 1.10,2013-01-27 05:41:00,
2013-01-27 00:56:00,7.2,3.0,30.35,NW,322,0.0,0.0,81,0.00,,,0.00,weatherlink.com 1.10,2013-01-27 05:56:00,
2013-01-27 01:11:00,6.7,3.0,30.35,NW,322,0.0,0.0,83,0.00,,,0.00,weatherlink.com 1.10,2013-01-27 06:11:00,
2013-01-27 01:26:00,6.9,3.0,30.36,NW,322,0.0,0.0,84,0.00,,,0.00,weatherlink.com 1.10,2013-01-27 06:26:00,
2013-01-27 01:41:00,6.8,3.0,30.36,NW,322,0.0,0.0,85,0.00,,,0.00,weatherlink.com 1.10,2013-01-27 06:41:00,
2013-01-27 01:56:00,6.2,3.0,30.37,NW,322,0.0,0.0,86,0.00,,,0.00,weatherlink.com 1.10,2013-01-27 06:56:00,
2013-01-27 02:26:00,5.4,2.0,30.38,NW,322,0.0,0.0,87,0.00,,,0.00,weatherlink.com 1.10,2013-01-27 07:26:00,
2013-01-27 02:41:00,5.1,2.0,30.38,ESE,123,0.0,0.0,87,0.00,,,0.00,weatherlink.com 1.10,2013-01-27 07:41:00,
2013-01-27 02:56:00,4.6,1.0,30.39,ESE,123,0.0,0.0,86,0.00,,,0.00,weatherlink.com 1.10,2013-01-27 07:56:00,
2013-01-27 03:11:00,4.6,2.0,30.38,ESE,123,0.0,0.0,88,0.00,,,0.00,weatherlink.com 1.10,2013-01-27 08:11:00,
2013-01-27 03:26:00,4.5,2.0,30.38,ESE,122,0.0,0.0,89,0.00,,,0.00,weatherlink.com 1.10,2013-01-27 08:26:00,
2013-01-27 03:41:00,4.9,2.0,30.38,ESE,123,0.0,0.0,89,0.00,,,0.00,weatherlink.com 1.10,2013-01-27 08:41:00,
2013-01-27 03:56:00,5.4,3.0,30.38,ESE,123,0.0,0.0,89,0.00,,,0.00,weatherlink.com 1.10,2013-01-27 08:56:00,
2013-01-27 04:11:00,5.9,3.0,30.38,ESE,115,0.0,0.0,89,0.00,,,0.00,weatherlink.com 1.10,2013-01-27 09:11:00,
2013-01-27 04:26:00,7.3,4.0,30.40,SE,127,0.0,0.0,87,0.00,,,0.00,weatherlink.com 1.10,2013-01-27 09:26:00,
2013-01-27 04:41:00,6.5,4.0,30.39,WNW,289,0.0,1.0,87,0.00,,,0.00,weatherlink.com 1.10,2013-01-27 09:41:00,
2013-01-27 04:56:00,8.5,5.0,30.39,SE,126,0.0,4.0,86,0.00,,,0.00,weatherlink.com 1.10,2013-01-27 09:56:00,
2013-01-27 05:11:00,8.4,5.0,30.39,ENE,76,0.0,2.0,85,0.00,,,0.00,weatherlink.com 1.10,2013-01-27 10:11:00,
2013-01-27 05:26:00,9.9,6.0,30.39,ESE,118,1.0,2.0,84,0.00,,,0.00,weatherlink.com 1.10,2013-01-27 10:26:00,
2013-01-27 05:41:00,8.5,5.0,30.40,ESE,123,0.0,2.0,84,0.00,,,0.00,weatherlink.com 1.10,2013-01-27 10:41:00,
2013-01-27 05:56:00,7.4,4.0,30.40,SE,127,0.0,0.0,85,0.00,,,0.00,weatherlink.com 1.10,2013-01-27 10:56:00,
2013-01-27 06:11:00,6.6,3.0,30.41,ESE,108,0.0,0.0,86,0.00,,,0.00,weatherlink.com 1.10,2013-01-27 11:11:00,
2013-01-27 06:26:00,6.1,3.0,30.41,ENE,72,0.0,0.0,88,0.00,,,0.00,weatherlink.com 1.10,2013-01-27 11:26:00,
2013-01-27 06:41:00,8.5,6.0,30.42,East,97,0.0,0.0,90,0.00,,,0.00,weatherlink.com 1.10,2013-01-27 11:41:00,
2013-01-27 06:56:00,8.5,6.0,30.42,NW,305,0.0,1.0,88,0.00,,,0.00,weatherlink.com 1.10,2013-01-27 11:56:00,
2013-01-27 07:11:00,10.5,7.0,30.43,NW,311,0.0,2.0,86,0.00,,,0.00,weatherlink.com 1.10,2013-01-27 12:11:00,
2013-01-27 07:26:00,10.3,6.0,30.43,NW,311,0.0,2.0,84,0.00,,,0.00,weatherlink.com 1.10,2013-01-27 12:26:00,
2013-01-27 07:41:00,11.1,8.0,30.44,West,280,0.0,2.0,85,0.00,,,0.00,weatherlink.com 1.10,2013-01-27 12:41:00,
2013-01-27 07:56:00,13.6,9.0,30.44,NW,316,2.0,7.0,82,0.00,,,0.00,weatherlink.com 1.10,2013-01-27 12:56:00,
2013-01-27 08:11:00,15.2,10.0,30.45,NW,316,2.0,6.0,80,0.00,,,0.00,weatherlink.com 1.10,2013-01-27 13:11:00,
2013-01-27 08:27:00,16.4,10.0,30.45,NW,305,0.0,7.0,77,0.00,,,0.00,weatherlink.com 1.10,2013-01-27 13:27:00,
2013-01-27 08:42:00,17.2,11.0,30.45,WNW,287,2.0,3.0,76,0.00,,,0.00,weatherlink.com 1.10,2013-01-27 13:42:00,
2013-01-27 08:57:00,18.1,11.0,30.45,West,271,1.0,4.0,73,0.00,,,0.00,weatherlink.com 1.10,2013-01-27 13:57:00,
2013-01-27 09:12:00,19.0,11.0,30.46,WNW,290,1.0,4.0,70,0.00,,,0.00,weatherlink.com 1.10,2013-01-27 14:12:00,
2013-01-27 09:27:00,19.8,11.0,30.46,ESE,113,0.0,4.0,68,0.00,,,0.00,weatherlink.com 1.10,2013-01-27 14:27:00,
2013-01-27 09:42:00,20.9,10.0,30.46,West,262,5.0,6.0,64,0.00,,,0.00,weatherlink.com 1.10,2013-01-27 14:42:00,
2013-01-27 09:57:00,22.3,10.0,30.47,WNW,302,2.0,5.0,59,0.00,,,0.00,weatherlink.com 1.10,2013-01-27 14:57:00,
2013-01-27 10:12:00,23.8,8.0,30.48,NW,311,3.0,9.0,52,0.00,,,0.00,weatherlink.com 1.10,2013-01-27 15:12:00,
2013-01-27 10:27:00,24.5,6.0,30.48,East,80,4.0,12.0,45,0.00,,,0.00,weatherlink.com 1.10,2013-01-27 15:27:00,
2013-01-27 10:42:00,25.1,6.0,30.49,NNE,18,6.0,10.0,44,0.00,,,0.00,weatherlink.com 1.10,2013-01-27 15:42:00,
2013-01-27 10:57:00,25.2,2.0,30.49,NW,308,5.0,12.0,37,0.00,,,0.00,weatherlink.com 1.10,2013-01-27 15:57:00,
2013-01-27 11:12:00,25.4,1.0,30.49,WNW,283,8.0,13.0,35,0.00,,,0.00,weatherlink.com 1.10,2013-01-27 16:12:00,
2013-01-27 11:27:00,26.3,1.0,30.48,NNE,25,8.0,12.0,34,0.00,,,0.00,weatherlink.com 1.10,2013-01-27 16:27:00,
2013-01-27 11:42:00,27.0,3.0,30.48,WNW,302,3.0,13.0,35,0.00,,,0.00,weatherlink.com 1.10,2013-01-27 16:42:00,
2013-01-27 11:57:00,27.5,2.0,30.47,NW,309,7.0,13.0,33,0.00,,,0.00,weatherlink.com 1.10,2013-01-27 16:57:00,
2013-01-27 12:12:00,27.6,2.0,30.47,WNW,299,5.0,13.0,33,0.00,,,0.00,weatherlink.com 1.10,2013-01-27 17:12:00,
2013-01-27 12:27:00,27.8,2.0,30.46,NW,313,7.0,13.0,33,0.00,,,0.00,weatherlink.com 1.10,2013-01-27 17:27:00,
2013-01-27 12:42:00,28.4,3.0,30.45,West,267,6.0,10.0,34,0.00,,,0.00,weatherlink.com 1.10,2013-01-27 17:42:00,
2013-01-27 12:57:00,28.5,3.0,30.44,North,358,7.0,15.0,33,0.00,,,0.00,weatherlink.com 1.10,2013-01-27 17:57:00,
2013-01-27 13:12:00,28.8,3.0,30.43,West,267,3.0,15.0,33,0.00,,,0.00,weatherlink.com 1.10,2013-01-27 18:12:00,
2013-01-27 13:27:00,29.4,3.0,30.44,West,276,7.0,13.0,32,0.00,,,0.00,weatherlink.com 1.10,2013-01-27 18:27:00,
2013-01-27 13:42:00,29.6,3.0,30.43,West,278,4.0,8.0,32,0.00,,,0.00,weatherlink.com 1.10,2013-01-27 18:42:00,
2013-01-27 13:57:00,30.1,3.0,30.43,WNW,283,2.0,9.0,31,0.00,,,0.00,weatherlink.com 1.10,2013-01-27 18:57:00,
2013-01-27 14:13:00,30.4,2.0,30.44,West,278,4.0,11.0,29,0.00,,,0.00,weatherlink.com 1.10,2013-01-27 19:13:00,
2013-01-27 14:28:00,30.3,1.0,30.44,NNW,327,4.0,8.0,29,0.00,,,0.00,weatherlink.com 1.10,2013-01-27 19:28:00,
2013-01-27 14:43:00,30.5,2.0,30.45,West,279,4.0,6.0,29,0.00,,,0.00,weatherlink.com 1.10,2013-01-27 19:43:00,
2013-01-27 14:58:00,30.6,1.0,30.45,NW,304,4.0,12.0,28,0.00,,,0.00,weatherlink.com 1.10,2013-01-27 19:58:00,
2013-01-27 15:13:00,30.5,2.0,30.44,NW,308,5.0,11.0,30,0.00,,,0.00,weatherlink.com 1.10,2013-01-27 20:13:00,
2013-01-27 15:28:00,30.4,1.0,30.44,WNW,285,4.0,7.0,28,0.00,,,0.00,weatherlink.com 1.10,2013-01-27 20:28:00,
2013-01-27 15:43:00,30.1,1.0,30.45,NW,324,6.0,10.0,29,0.00,,,0.00,weatherlink.com 1.10,2013-01-27 20:43:00,
2013-01-27 15:58:00,30.2,1.0,30.45,NW,310,4.0,9.0,28,0.00,,,0.00,weatherlink.com 1.10,2013-01-27 20:58:00,
2013-01-27 16:13:00,30.0,1.0,30.45,NNW,335,5.0,9.0,29,0.00,,,0.00,weatherlink.com 1.10,2013-01-27 21:13:00,
2013-01-27 16:28:00,29.5,3.0,30.45,NNE,23,2.0,7.0,32,0.00,,,0.00,weatherlink.com 1.10,2013-01-27 21:28:00,
2013-01-27 16:43:00,28.2,4.0,30.46,WNW,295,2.0,2.0,35,0.00,,,0.00,weatherlink.com 1.10,2013-01-27 21:43:00,
2013-01-27 16:58:00,27.2,5.0,30.48,WNW,293,0.0,2.0,39,0.00,,,0.00,weatherlink.com 1.10,2013-01-27 21:58:00,
2013-01-27 17:13:00,26.8,4.0,30.47,NW,304,0.0,4.0,38,0.00,,,0.00,weatherlink.com 1.10,2013-01-27 22:13:00,
2013-01-27 17:28:00,25.7,6.0,30.47,NW,305,0.0,1.0,43,0.00,,,0.00,weatherlink.com 1.10,2013-01-27 22:28:00,
2013-01-27 17:43:00,22.7,7.0,30.48,NW,305,0.0,1.0,50,0.00,,,0.00,weatherlink.com 1.10,2013-01-27 22:43:00,
2013-01-27 17:58:00,21.3,8.0,30.48,NW,305,0.0,0.0,57,0.00,,,0.00,weatherlink.com 1.10,2013-01-27 22:58:00,
2013-01-27 18:13:00,20.8,9.0,30.48,NW,304,0.0,0.0,60,0.00,,,0.00,weatherlink.com 1.10,2013-01-27 23:13:00,
2013-01-27 18:28:00,19.5,9.0,30.48,NW,305,0.0,0.0,65,0.00,,,0.00,weatherlink.com 1.10,2013-01-27 23:28:00,
2013-01-27 18:43:00,19.0,10.0,30.48,NW,305,0.0,0.0,68,0.00,,,0.00,weatherlink.com 1.10,2013-01-27 23:43:00,
2013-01-27 18:58:00,18.2,10.0,30.48,NW,305,0.0,0.0,70,0.00,,,0.00,weatherlink.com 1.10,2013-01-27 23:58:00,
2013-01-27 19:13:00,18.2,11.0,30.48,NW,305,0.0,0.0,72,0.00,,,0.00,weatherlink.com 1.10,2013-01-28 00:13:00,
2013-01-27 19:28:00,18.5,12.0,30.50,NW,305,0.0,0.0,74,0.00,,,0.00,weatherlink.com 1.10,2013-01-28 00:28:00,
2013-01-27 19:43:00,18.0,12.0,30.49,NW,305,0.0,0.0,76,0.00,,,0.00,weatherlink.com 1.10,2013-01-28 00:43:00,
2013-01-27 19:58:00,18.1,11.0,30.49,NW,305,0.0,0.0,74,0.00,,,0.00,weatherlink.com 1.10,2013-01-28 00:58:00,
2013-01-27 20:13:00,17.7,10.0,30.49,NW,305,0.0,0.0,73,0.00,,,0.00,weatherlink.com 1.10,2013-01-28 01:13:00,
2013-01-27 20:28:00,18.5,11.0,30.49,NNE,26,0.0,0.0,72,0.00,,,0.00,weatherlink.com 1.10,2013-01-28 01:28:00,
2013-01-27 20:43:00,17.5,11.0,30.48,NNE,26,0.0,0.0,75,0.00,,,0.00,weatherlink.com 1.10,2013-01-28 01:43:00,
2013-01-27 20:58:00,17.3,11.0,30.49,NNE,26,0.0,0.0,76,0.00,,,0.00,weatherlink.com 1.10,2013-01-28 01:58:00,
2013-01-27 21:13:00,17.5,11.0,30.49,NNE,26,0.0,0.0,77,0.00,,,0.00,weatherlink.com 1.10,2013-01-28 02:13:00,
2013-01-27 21:28:00,17.4,11.0,30.49,NNE,26,0.0,0.0,77,0.00,,,0.00,weatherlink.com 1.10,2013-01-28 02:28:00,
2013-01-27 21:43:00,16.8,11.0,30.50,NNE,26,0.0,0.0,79,0.00,,,0.00,weatherlink.com 1.10,2013-01-28 02:43:00,
2013-01-27 21:58:00,16.2,11.0,30.50,NNE,26,0.0,0.0,79,0.00,,,0.00,weatherlink.com 1.10,2013-01-28 02:58:00,
2013-01-27 22:13:00,15.6,11.0,30.50,NNE,26,0.0,0.0,80,0.00,,,0.00,weatherlink.com 1.10,2013-01-28 03:13:00,
2013-01-27 22:28:00,14.4,10.0,30.50,NNE,26,0.0,0.0,82,0.00,,,0.00,weatherlink.com 1.10,2013-01-28 03:28:00,
2013-01-27 22:43:00,14.4,10.0,30.50,NNE,26,0.0,0.0,83,0.00,,,0.00,weatherlink.com 1.10,2013-01-28 03:43:00,
2013-01-27 22:58:00,14.0,10.0,30.48,NNE,26,0.0,0.0,83,0.00,,,0.00,weatherlink.com 1.10,2013-01-28 03:58:00,
2013-01-27 23:13:00,13.8,9.0,30.49,NNE,26,0.0,0.0,82,0.00,,,0.00,weatherlink.com 1.10,2013-01-28 04:13:00,
2013-01-27 23:28:00,13.7,9.0,30.49,NNE,26,0.0,0.0,82,0.00,,,0.00,weatherlink.com 1.10,2013-01-28 04:28:00,
2013-01-27 23:43:00,13.3,9.0,30.48,NNE,26,0.0,0.0,83,0.00,,,0.00,weatherlink.com 1.10,2013-01-28 04:43:00,
2013-01-27 23:58:00,12.7,9.0,30.49,NNE,26,0.0,0.0,83,0.00,,,0.00,weatherlink.com 1.10,2013-01-28 04:58:00,